Time;durP1;ratioP1;P1;durP2;ratioP2;P2;SDS_P1;SDS_P2;PMS_P1;PMS_P2;Temp;Humidity;BMP_temperature;BMP_pressure;BME280_temperature;BME280_humidity;BME280_pressure;Samples;Min_cycle;Max_cycle;Signal;HPM_P1;HPM_P2
2024/03/13 00:00:31;;;;;;;16.83;10.30;;;;;;;7.34;100.00;101013.81;5031593;28;20264;-70
2024/03/13 00:02:58;;;;;;;15.77;10.23;;;;;;;7.31;100.00;101017.78;5034543;28;20211;-70
2024/03/13 00:05:25;;;;;;;15.17;9.83;;;;;;;7.29;100.00;101008.66;5025596;28;20579;-70
2024/03/13 00:07:51;;;;;;;16.10;9.23;;;;;;;7.26;100.00;101006.63;5027177;28;20270;-70
2024/03/13 00:10:18;;;;;;;15.20;9.60;;;;;;;7.25;100.00;101011.09;5025841;28;20297;-70
2024/03/13 00:12:44;;;;;;;14.07;9.33;;;;;;;7.22;100.00;101009.06;5030716;28;20666;-70
2024/03/13 00:15:12;;;;;;;17.50;10.77;;;;;;;7.22;100.00;101005.66;5029938;28;20242;-70
2024/03/13 00:17:38;;;;;;;17.50;10.00;;;;;;;7.19;100.00;101009.63;5027747;28;20195;-70
2024/03/13 00:20:06;;;;;;;15.23;9.37;;;;;;;7.19;100.00;101022.00;5030365;28;20220;-70
2024/03/13 00:22:36;;;;;;;17.77;10.73;;;;;;;7.17;100.00;101017.03;5033423;28;20214;-70
2024/03/13 00:25:03;;;;;;;14.57;9.33;;;;;;;7.17;100.00;101014.41;5036278;28;20220;-70
2024/03/13 00:27:28;;;;;;;15.47;10.13;;;;;;;7.19;100.00;101019.38;5033993;28;20196;-70
2024/03/13 00:29:56;;;;;;;17.90;10.37;;;;;;;7.17;100.00;101022.28;5027983;28;20207;-70
2024/03/13 00:32:24;;;;;;;15.73;9.87;;;;;;;7.16;100.00;101012.88;5033448;28;20618;-70
2024/03/13 00:34:51;;;;;;;16.30;9.60;;;;;;;7.16;100.00;101012.06;5032365;28;20738;-70
2024/03/13 00:37:18;;;;;;;15.73;9.83;;;;;;;7.14;100.00;101011.59;5030264;28;20211;-70
2024/03/13 00:39:44;;;;;;;17.10;9.20;;;;;;;7.12;100.00;101013.72;5028032;28;20209;-70
2024/03/13 00:42:11;;;;;;;15.13;9.00;;;;;;;7.10;100.00;101014.00;5031391;28;20212;-71
2024/03/13 00:44:39;;;;;;;16.70;9.53;;;;;;;7.07;100.00;101016.44;5030643;28;20240;-70
2024/03/13 00:47:05;;;;;;;15.43;9.87;;;;;;;7.03;100.00;101013.63;5031006;28;20222;-70
2024/03/13 00:49:33;;;;;;;15.07;8.77;;;;;;;7.02;100.00;101011.28;5030143;28;20578;-70
2024/03/13 00:51:59;;;;;;;14.13;8.73;;;;;;;7.00;100.00;101018.69;5031353;28;20198;-70
2024/03/13 00:54:28;;;;;;;15.30;9.40;;;;;;;6.98;100.00;101015.53;5028847;28;20870;-70
2024/03/13 00:56:56;;;;;;;14.60;8.90;;;;;;;6.95;100.00;101014.28;5034024;28;20196;-70
2024/03/13 00:59:23;;;;;;;15.97;9.37;;;;;;;6.94;100.00;101014.59;5030869;28;20198;-70
2024/03/13 01:01:49;;;;;;;14.30;9.00;;;;;;;6.94;100.00;101017.22;5031565;28;20235;-70
2024/03/13 01:04:16;;;;;;;15.37;9.97;;;;;;;6.93;100.00;101015.63;5030059;28;20232;-70
2024/03/13 01:06:46;;;;;;;17.73;9.70;;;;;;;6.93;100.00;101018.25;5029995;28;20204;-70
2024/03/13 01:09:13;;;;;;;16.37;9.80;;;;;;;6.93;100.00;101013.81;5032112;28;20239;-72
2024/03/13 01:11:40;;;;;;;18.93;10.20;;;;;;;6.93;100.00;101015.63;5029354;28;20204;-73
2024/03/13 01:14:09;;;;;;;17.00;10.23;;;;;;;6.92;100.00;101012.25;5030274;28;20650;-73
2024/03/13 01:16:36;;;;;;;15.67;9.30;;;;;;;6.93;100.00;101016.44;5031014;28;20208;-73
2024/03/13 01:19:02;;;;;;;16.73;9.53;;;;;;;6.93;100.00;101018.25;5032098;28;20281;-73
2024/03/13 01:21:29;;;;;;;13.90;8.83;;;;;;;6.94;100.00;101011.97;5033602;28;20200;-73
2024/03/13 01:23:56;;;;;;;16.33;9.47;;;;;;;6.93;100.00;101008.56;5034184;28;20212;-73
2024/03/13 01:26:22;;;;;;;16.77;9.77;;;;;;;6.95;100.00;101005.66;5033224;28;20675;-73
2024/03/13 01:28:50;;;;;;;17.97;10.33;;;;;;;6.95;100.00;101009.03;5027265;28;20683;-73
2024/03/13 01:31:18;;;;;;;15.73;9.73;;;;;;;6.95;100.00;101009.03;5034383;28;20701;-73
2024/03/13 01:33:45;;;;;;;16.33;9.23;;;;;;;6.95;100.00;101011.66;5027847;28;20209;-73
2024/03/13 01:36:11;;;;;;;16.97;9.60;;;;;;;6.96;100.00;101010.59;5028431;28;20203;-73
2024/03/13 01:38:37;;;;;;;15.43;9.27;;;;;;;6.96;100.00;101000.09;5036565;28;20282;-73
2024/03/13 01:55:10;;;;;;;14.47;9.50;;;;;;;7.01;100.00;101001.84;5027620;28;20560;-73
2024/03/13 01:58:07;;;;;;;15.43;9.57;;;;;;;7.00;100.00;100998.44;5028758;28;20203;-73
2024/03/13 02:03:22;;;;;;;15.00;9.57;;;;;;;7.01;100.00;100997.38;5038283;28;20246;-73
2024/03/13 02:05:50;;;;;;;17.33;10.03;;;;;;;7.03;100.00;100994.44;5036052;28;20634;-73
2024/03/13 02:08:20;;;;;;;12.70;8.50;;;;;;;7.03;100.00;101003.13;5046657;28;20207;-73
2024/03/13 02:10:48;;;;;;;15.50;10.00;;;;;;;7.04;100.00;101011.78;5043907;28;20215;-73
2024/03/13 02:13:17;;;;;;;17.33;9.97;;;;;;;7.04;100.00;101003.91;5039016;28;20207;-73
2024/03/13 02:15:45;;;;;;;17.43;10.47;;;;;;;7.04;100.00;101009.16;5038301;28;20220;-73
2024/03/13 02:18:20;;;;;;;14.67;9.67;;;;;;;7.04;100.00;101012.53;5037099;28;20223;-73
2024/03/13 02:20:47;;;;;;;17.23;9.77;;;;;;;7.04;100.00;100996.03;5039902;28;20200;-73
2024/03/13 02:23:17;;;;;;;14.13;8.90;;;;;;;7.05;100.00;101008.09;5036201;28;20193;-73
2024/03/13 02:25:44;;;;;;;20.40;10.93;;;;;;;7.05;100.00;101000.22;5017243;28;20215;-73
2024/03/13 02:28:10;;;;;;;17.27;10.03;;;;;;;7.05;100.00;101002.84;5014034;28;20226;-73
2024/03/13 02:30:37;;;;;;;16.00;9.17;;;;;;;7.05;100.00;101010.72;5018215;28;20277;-73
2024/03/13 02:33:04;;;;;;;16.37;10.33;;;;;;;7.04;100.00;101007.28;5022741;28;20211;-73
2024/03/13 02:35:32;;;;;;;19.63;11.03;;;;;;;7.05;100.00;101008.09;5017420;28;20232;-73
2024/03/13 02:37:59;;;;;;;18.70;10.20;;;;;;;7.05;100.00;101006.22;5001831;28;20295;-73
2024/03/13 02:40:25;;;;;;;17.10;10.57;;;;;;;7.05;100.00;101008.84;5016827;28;20706;-73
2024/03/13 02:42:53;;;;;;;16.70;10.33;;;;;;;7.05;100.00;101008.84;5017459;28;20200;-73
2024/03/13 02:45:20;;;;;;;17.43;10.20;;;;;;;7.06;100.00;101009.63;5015945;28;20233;-73
2024/03/13 02:47:46;;;;;;;19.63;11.47;;;;;;;7.07;100.00;101016.44;5018252;28;20196;-73
2024/03/13 02:50:13;;;;;;;15.50;9.63;;;;;;;7.07;100.00;101011.19;5004753;28;20231;-73
2024/03/13 02:52:40;;;;;;;18.13;10.23;;;;;;;7.07;100.00;101016.44;5006263;28;20265;-71
2024/03/13 02:55:06;;;;;;;18.57;10.30;;;;;;;7.07;100.00;101009.34;5001210;28;20224;-70
2024/03/13 02:57:33;;;;;;;18.83;10.80;;;;;;;7.07;100.00;101005.94;5021911;28;20200;-70
2024/03/13 03:00:06;;;;;;;16.33;10.47;;;;;;;7.08;100.00;101007.47;4996465;28;20215;-70
2024/03/13 03:02:33;;;;;;;16.17;10.13;;;;;;;7.08;100.00;101010.91;5015978;28;20564;-71
2024/03/13 03:04:59;;;;;;;16.93;10.00;;;;;;;7.08;100.00;101008.28;5023386;28;20227;-70
2024/03/13 03:07:26;;;;;;;17.23;9.83;;;;;;;7.08;100.00;101003.03;5018193;28;20213;-70
2024/03/13 03:09:52;;;;;;;18.00;11.60;;;;;;;7.08;100.00;101010.91;5014272;28;20215;-70
2024/03/13 03:12:19;;;;;;;17.27;9.97;;;;;;;7.09;100.00;101003.81;5019654;28;20205;-70
2024/03/13 03:14:45;;;;;;;19.33;11.17;;;;;;;7.08;100.00;100995.16;5015277;28;20622;-70
2024/03/13 03:17:14;;;;;;;17.13;10.37;;;;;;;7.08;100.00;101003.03;5026803;28;20200;-70
2024/03/13 03:19:43;;;;;;;16.87;10.73;;;;;;;7.09;100.00;101001.19;5013379;28;20255;-70
2024/03/13 03:22:10;;;;;;;19.37;10.40;;;;;;;7.08;100.00;101000.41;5018441;28;20686;-70
2024/03/13 03:24:36;;;;;;;20.37;11.30;;;;;;;7.08;100.00;101002.22;5013873;28;20576;-70
2024/03/13 03:27:05;;;;;;;18.10;10.70;;;;;;;7.10;100.00;101006.13;5021628;28;20558;-70
2024/03/13 03:29:31;;;;;;;19.13;11.23;;;;;;;7.09;100.00;101009.06;5016710;28;20701;-71
2024/03/13 03:31:58;;;;;;;19.97;11.17;;;;;;;7.09;100.00;101004.56;5018617;28;20262;-70
2024/03/13 03:34:24;;;;;;;17.87;10.57;;;;;;;7.08;100.00;101000.41;5014982;28;20297;-70
2024/03/13 03:36:52;;;;;;;20.07;9.50;;;;;;;7.09;100.00;100998.56;5012023;28;20205;-70
2024/03/13 03:39:24;;;;;;;16.90;10.47;;;;;;;7.09;100.00;101009.81;5027885;28;20242;-70
2024/03/13 03:41:51;;;;;;;19.83;10.50;;;;;;;7.09;100.00;101003.81;5017310;28;20231;-70
2024/03/13 03:44:18;;;;;;;15.53;9.97;;;;;;;7.09;100.00;101006.44;5021174;28;20235;-70
2024/03/13 03:46:44;;;;;;;18.03;10.90;;;;;;;7.09;100.00;100998.56;5018419;28;20287;-70
2024/03/13 03:49:11;;;;;;;19.00;11.30;;;;;;;7.08;100.00;101008.28;5017210;28;20224;-71
2024/03/13 03:51:37;;;;;;;22.90;11.67;;;;;;;7.09;100.00;100994.06;5020452;28;20212;-70
2024/03/13 03:54:05;;;;;;;18.93;10.50;;;;;;;7.09;100.00;100995.94;5013542;28;20216;-71
2024/03/13 03:56:32;;;;;;;18.87;10.53;;;;;;;7.07;100.00;101001.47;5021864;28;20278;-70
2024/03/13 03:58:58;;;;;;;15.83;10.30;;;;;;;7.08;100.00;100999.59;5019001;28;20208;-71
2024/03/13 04:01:25;;;;;;;15.67;10.73;;;;;;;7.06;100.00;101002.56;5017546;28;20196;-71
2024/03/13 04:03:52;;;;;;;18.80;10.63;;;;;;;7.08;100.00;100996.97;5015623;28;20598;-71
2024/03/13 04:06:18;;;;;;;19.40;10.90;;;;;;;7.07;100.00;101000.69;5004998;28;20203;-71
2024/03/13 04:08:45;;;;;;;16.60;10.10;;;;;;;7.07;100.00;101003.31;5015741;28;20275;-70
2024/03/13 04:11:12;;;;;;;15.83;10.47;;;;;;;7.06;100.00;100999.13;5013855;28;20404;-70
2024/03/13 04:13:38;;;;;;;15.20;10.17;;;;;;;7.06;100.00;100997.28;5016695;28;20278;-70
2024/03/13 04:16:06;;;;;;;16.20;10.87;;;;;;;7.06;100.00;101009.63;5015898;28;20206;-70
2024/03/13 04:18:33;;;;;;;18.03;10.90;;;;;;;7.04;100.00;101003.91;5014241;28;20714;-70
2024/03/13 04:21:00;;;;;;;18.53;10.60;;;;;;;7.04;100.00;101009.91;5024658;28;20203;-71
2024/03/13 04:23:26;;;;;;;15.90;10.13;;;;;;;7.04;100.00;101006.53;5014666;28;20195;-71
2024/03/13 04:25:53;;;;;;;18.07;10.47;;;;;;;7.03;100.00;101000.50;5002131;28;20227;-71
2024/03/13 04:28:20;;;;;;;17.73;10.60;;;;;;;7.03;100.00;101012.84;5014517;28;20208;-71
2024/03/13 04:30:47;;;;;;;19.83;10.73;;;;;;;7.02;100.00;101006.03;5016744;28;20208;-71
2024/03/13 04:33:13;;;;;;;20.27;12.03;;;;;;;7.01;100.00;101010.53;5017771;28;20200;-70
2024/03/13 04:35:39;;;;;;;19.80;11.47;;;;;;;7.01;100.00;101014.97;5016941;28;20584;-71
2024/03/13 04:38:05;;;;;;;20.13;11.87;;;;;;;6.99;100.00;101010.00;5008124;28;20211;-70
2024/03/13 04:40:32;;;;;;;22.37;11.00;;;;;;;7.01;100.00;101020.22;5016193;28;20203;-71
2024/03/13 04:43:05;;;;;;;19.30;10.53;;;;;;;6.99;100.00;101012.63;5014722;28;20180;-70
2024/03/13 04:45:32;;;;;;;15.33;9.80;;;;;;;6.98;100.00;101018.97;5011851;28;20273;-70
2024/03/13 04:47:58;;;;;;;19.40;11.40;;;;;;;6.97;100.00;101022.66;5020654;28;20234;-70
2024/03/13 04:50:25;;;;;;;17.87;10.90;;;;;;;6.97;100.00;101012.16;4999626;28;20261;-71
2024/03/13 04:52:52;;;;;;;21.17;11.10;;;;;;;6.97;100.00;101014.00;5015618;28;20201;-71
2024/03/13 04:55:18;;;;;;;18.23;11.87;;;;;;;6.96;100.00;101018.50;5014845;28;20223;-70
2024/03/13 04:57:45;;;;;;;18.33;10.70;;;;;;;6.96;100.00;101023.72;5019112;28;20248;-70
2024/03/13 05:00:12;;;;;;;19.10;11.20;;;;;;;6.96;100.00;101023.72;5019228;28;20210;-72
2024/03/13 05:02:38;;;;;;;19.43;11.30;;;;;;;6.95;100.00;101019.53;5022288;28;20610;-71
2024/03/13 05:05:05;;;;;;;19.30;11.43;;;;;;;6.95;100.00;101026.66;5021823;28;20225;-71
2024/03/13 05:07:31;;;;;;;19.73;11.37;;;;;;;6.94;100.00;101017.97;5015236;28;20196;-70
2024/03/13 05:09:59;;;;;;;18.90;11.57;;;;;;;6.94;100.00;101019.84;5016235;28;20212;-70
2024/03/13 05:12:32;;;;;;;18.70;11.27;;;;;;;6.94;100.00;101032.97;5015686;28;20627;-70
2024/03/13 05:14:59;;;;;;;19.40;10.87;;;;;;;6.93;100.00;101023.50;5022553;28;20220;-73
2024/03/13 05:17:25;;;;;;;19.33;11.93;;;;;;;6.92;100.00;101024.59;5019524;28;20215;-73
2024/03/13 05:19:52;;;;;;;20.43;12.17;;;;;;;6.93;100.00;101028.75;5018218;28;20199;-73
2024/03/13 05:22:19;;;;;;;19.50;11.83;;;;;;;6.92;100.00;101028.00;5016200;28;20204;-73
2024/03/13 05:24:48;;;;;;;20.43;12.13;;;;;;;6.92;100.00;101041.13;5012418;28;20221;-73
2024/03/13 05:27:15;;;;;;;21.53;12.33;;;;;;;6.91;100.00;101031.69;5019678;28;20232;-73
2024/03/13 05:29:42;;;;;;;20.83;11.43;;;;;;;6.92;100.00;101043.75;5012372;28;20299;-73
2024/03/13 05:32:09;;;;;;;20.70;11.53;;;;;;;6.93;100.00;101044.50;5023425;28;20203;-73
2024/03/13 05:34:37;;;;;;;20.30;11.50;;;;;;;6.92;100.00;101045.59;5012802;28;20226;-71
2024/03/13 05:37:08;;;;;;;19.80;11.63;;;;;;;6.92;100.00;101040.34;5051766;28;20195;-70
2024/03/13 05:39:35;;;;;;;21.37;11.83;;;;;;;6.91;100.00;101047.44;5010835;28;20193;-70
2024/03/13 05:42:01;;;;;;;18.67;11.73;;;;;;;6.92;100.00;101048.22;5013175;28;20205;-70
2024/03/13 05:44:29;;;;;;;24.03;13.30;;;;;;;6.93;100.00;101047.94;5018602;28;20212;-70
2024/03/13 05:46:55;;;;;;;22.73;13.30;;;;;;;6.94;100.00;101053.97;5015324;28;20203;-71
2024/03/13 05:49:22;;;;;;;21.13;12.87;;;;;;;6.94;100.00;101062.59;5013862;28;20213;-70
2024/03/13 05:51:48;;;;;;;22.87;13.37;;;;;;;6.95;100.00;101053.66;4998726;28;20216;-70
2024/03/13 05:54:15;;;;;;;25.53;14.33;;;;;;;6.97;100.00;101056.00;5008476;28;20228;-70
2024/03/13 05:56:43;;;;;;;23.13;13.33;;;;;;;6.98;100.00;101055.72;5002194;28;20204;-71
2024/03/13 05:59:09;;;;;;;21.50;12.90;;;;;;;6.99;100.00;101054.66;4999344;28;20697;-71
2024/03/13 06:01:36;;;;;;;24.20;13.80;;;;;;;7.01;100.00;101052.53;5004176;28;20204;-71
2024/03/13 06:04:03;;;;;;;28.50;16.77;;;;;;;7.02;100.00;101043.56;5048732;28;20274;-70
2024/03/13 06:06:29;;;;;;;24.60;14.60;;;;;;;7.05;100.00;101048.22;5019434;28;20308;-70
2024/03/13 06:08:56;;;;;;;27.03;15.93;;;;;;;7.07;100.00;101050.56;5013070;28;20203;-70
2024/03/13 06:11:22;;;;;;;27.67;15.00;;;;;;;7.09;100.00;101056.34;5010451;28;20545;-70
2024/03/13 06:13:50;;;;;;;28.67;17.83;;;;;;;7.12;100.00;101055.72;5013346;28;20765;-70
2024/03/13 06:16:16;;;;;;;25.13;15.17;;;;;;;7.15;100.00;101055.16;5009524;28;20196;-70
2024/03/13 06:18:46;;;;;;;29.30;15.30;;;;;;;7.18;100.00;101063.25;5013595;28;20208;-70
2024/03/13 06:21:12;;;;;;;27.17;16.23;;;;;;;7.20;100.00;101058.47;5014930;28;20256;-70
2024/03/13 06:23:47;;;;;;;25.53;14.43;;;;;;;7.26;100.00;101064.41;5014997;28;20245;-71
2024/03/13 06:26:16;;;;;;;24.20;14.80;;;;;;;7.28;100.00;101063.06;5019440;28;20226;-71
2024/03/13 06:31:32;;;;;;;20.43;13.57;;;;;;;7.37;100.00;101074.44;5013373;28;20238;-71
2024/03/13 06:33:59;;;;;;;23.37;13.73;;;;;;;7.39;100.00;101068.88;5015194;28;20224;-71
2024/03/13 06:36:25;;;;;;;27.13;13.30;;;;;;;7.43;100.00;101073.28;5019064;28;20642;-70
2024/03/13 06:38:52;;;;;;;27.50;15.10;;;;;;;7.47;100.00;101081.34;5012132;28;20206;-70
2024/03/13 06:41:19;;;;;;;22.17;13.27;;;;;;;7.50;100.00;101076.28;5019362;28;20203;-70
2024/03/13 06:43:48;;;;;;;23.17;14.87;;;;;;;7.55;100.00;101073.56;5017559;28;20262;-71
2024/03/13 06:46:14;;;;;;;23.97;13.73;;;;;;;7.58;100.00;101072.97;5020759;28;20646;-70
2024/03/13 06:48:41;;;;;;;22.83;13.90;;;;;;;7.61;100.00;101076.88;5015844;28;20712;-70
2024/03/13 06:51:08;;;;;;;21.17;12.70;;;;;;;7.64;100.00;101076.25;5020389;28;20292;-70
2024/03/13 06:53:35;;;;;;;24.30;13.77;;;;;;;7.67;100.00;101078.31;5011289;28;20211;-71
2024/03/13 06:56:01;;;;;;;23.00;14.50;;;;;;;7.71;100.00;101085.31;5013288;28;20608;-71
2024/03/13 06:58:28;;;;;;;23.10;13.37;;;;;;;7.74;100.00;101081.31;5015481;28;20211;-70
2024/03/13 07:00:55;;;;;;;21.07;14.13;;;;;;;7.74;100.00;101071.59;5012761;28;20199;-71
2024/03/13 07:03:23;;;;;;;24.17;13.67;;;;;;;7.76;100.00;101082.59;5008460;28;20208;-71
2024/03/13 07:05:51;;;;;;;25.37;14.17;;;;;;;7.76;100.00;101097.59;5012627;28;20228;-70
2024/03/13 07:08:17;;;;;;;20.10;13.17;;;;;;;7.75;100.00;101088.91;5013381;28;20198;-71
2024/03/13 07:10:44;;;;;;;22.90;14.47;;;;;;;7.73;100.00;101095.53;5012940;28;20224;-71
2024/03/13 07:13:11;;;;;;;23.07;14.57;;;;;;;7.70;100.00;101088.22;5015497;28;20205;-71
2024/03/13 07:15:39;;;;;;;22.20;14.33;;;;;;;7.67;100.00;101092.22;5013675;28;20757;-70
2024/03/13 07:18:07;;;;;;;24.43;14.67;;;;;;;7.64;100.00;101089.41;5014799;28;20208;-70
2024/03/13 07:20:33;;;;;;;22.27;13.43;;;;;;;7.59;100.00;101092.94;5021572;28;20201;-71
2024/03/13 07:23:00;;;;;;;25.07;14.07;;;;;;;7.56;100.00;101092.75;5028541;28;20211;-71
2024/03/13 07:25:26;;;;;;;26.13;16.23;;;;;;;7.54;100.00;101095.66;5014942;28;20238;-71
2024/03/13 07:27:53;;;;;;;35.67;19.20;;;;;;;7.52;100.00;101095.19;5001862;28;20203;-70
2024/03/13 07:30:20;;;;;;;34.47;18.70;;;;;;;7.51;100.00;101096.22;5031298;28;20220;-71
2024/03/13 07:32:48;;;;;;;31.60;18.43;;;;;;;7.52;100.00;101103.06;5020005;28;20203;-70
2024/03/13 07:35:15;;;;;;;33.07;18.43;;;;;;;7.54;100.00;101100.91;5007816;28;20269;-70
2024/03/13 07:37:41;;;;;;;30.03;16.83;;;;;;;7.57;100.00;101099.53;5011210;28;20275;-70
2024/03/13 07:40:09;;;;;;;27.83;16.83;;;;;;;7.60;100.00;101106.81;5014351;28;20203;-70
2024/03/13 07:42:35;;;;;;;31.53;15.93;;;;;;;7.63;100.00;101101.78;5012048;28;20229;-70
2024/03/13 07:45:02;;;;;;;28.93;16.70;;;;;;;7.67;100.00;101094.84;5015294;28;20235;-71
2024/03/13 07:47:28;;;;;;;30.33;16.93;;;;;;;7.74;100.00;101112.88;5013382;28;20207;-71
2024/03/13 07:49:55;;;;;;;31.70;16.17;;;;;;;7.78;100.00;101105.97;5010878;28;20213;-70
2024/03/13 07:52:22;;;;;;;36.23;17.67;;;;;;;7.85;100.00;101115.00;5012374;28;20210;-70
2024/03/13 07:54:49;;;;;;;30.57;18.03;;;;;;;7.93;100.00;101116.94;5012430;28;20700;-70
2024/03/13 07:57:15;;;;;;;31.40;17.97;;;;;;;8.00;100.00;101112.06;5015309;28;20730;-70
2024/03/13 07:59:43;;;;;;;32.43;18.17;;;;;;;8.11;100.00;101116.03;5014940;28;20216;-71
2024/03/13 08:02:09;;;;;;;32.47;17.67;;;;;;;8.15;100.00;101117.00;5015490;28;20248;-71
2024/03/13 08:04:36;;;;;;;36.77;19.20;;;;;;;8.25;100.00;101116.81;5012921;28;20701;-70
2024/03/13 08:07:04;;;;;;;37.43;19.90;;;;;;;8.36;100.00;101128.69;5010446;28;20615;-71
2024/03/13 08:09:30;;;;;;;32.20;18.47;;;;;;;8.45;100.00;101134.00;5015720;28;20233;-71
2024/03/13 08:11:57;;;;;;;34.73;19.53;;;;;;;8.56;100.00;101127.44;5009351;28;20241;-71
2024/03/13 08:14:24;;;;;;;32.40;18.13;;;;;;;8.62;100.00;101119.13;5000578;28;20717;-71
2024/03/13 08:16:51;;;;;;;31.57;18.07;;;;;;;8.71;100.00;101122.59;5014201;28;20634;-70
2024/03/13 08:19:18;;;;;;;29.93;16.70;;;;;;;8.82;100.00;101118.66;5010721;28;20246;-70
2024/03/13 08:21:44;;;;;;;33.10;17.63;;;;;;;8.88;100.00;101119.28;5011299;28;20218;-71
2024/03/13 08:24:11;;;;;;;31.37;17.63;;;;;;;8.96;100.00;101129.13;5018712;28;20727;-71
2024/03/13 08:26:38;;;;;;;28.60;16.57;;;;;;;9.05;100.00;101127.28;5005399;28;20217;-71
2024/03/13 08:29:04;;;;;;;31.20;17.37;;;;;;;9.12;100.00;101125.78;5010754;28;20671;-71
2024/03/13 08:31:32;;;;;;;30.03;17.73;;;;;;;9.24;100.00;101125.22;5011711;28;20219;-71
2024/03/13 08:33:58;;;;;;;28.10;17.27;;;;;;;9.32;100.00;101132.41;5012071;28;20774;-71
2024/03/13 08:36:25;;;;;;;26.97;16.83;;;;;;;9.41;100.00;101138.47;5019582;28;20859;-71
2024/03/13 08:38:52;;;;;;;29.87;17.70;;;;;;;9.50;100.00;101134.81;5009479;28;20216;-71
2024/03/13 08:41:19;;;;;;;31.57;17.73;;;;;;;9.61;100.00;101143.22;5015769;28;20276;-71
2024/03/13 08:43:46;;;;;;;40.53;21.30;;;;;;;9.68;100.00;101143.56;5007495;28;20253;-71
2024/03/13 08:46:12;;;;;;;31.40;17.77;;;;;;;9.76;100.00;101151.50;5005054;28;20270;-71
2024/03/13 08:48:38;;;;;;;30.30;17.77;;;;;;;9.87;100.00;101155.41;5011336;28;20868;-71
2024/03/13 08:51:09;;;;;;;29.20;17.77;;;;;;;9.94;100.00;101155.72;5013213;28;20219;-71
2024/03/13 08:53:36;;;;;;;29.53;17.57;;;;;;;10.02;100.00;101146.28;5006969;28;20201;-71
2024/03/13 08:56:02;;;;;;;28.17;17.00;;;;;;;10.09;100.00;101147.41;5007495;28;20225;-71
2024/03/13 08:58:29;;;;;;;27.90;16.87;;;;;;;10.16;100.00;101145.13;5007453;28;20202;-71
2024/03/13 09:01:00;;;;;;;29.57;16.87;;;;;;;10.22;100.00;101148.38;5011452;28;20240;-71
2024/03/13 09:03:27;;;;;;;33.30;18.40;;;;;;;10.27;100.00;101149.00;5012209;28;20217;-71
2024/03/13 09:05:57;;;;;;;29.67;17.20;;;;;;;10.34;100.00;101151.16;5046758;28;20221;-71
2024/03/13 09:08:24;;;;;;;29.07;17.30;;;;;;;10.40;100.00;101155.25;5019466;28;20234;-71
2024/03/13 09:10:51;;;;;;;30.73;17.77;;;;;;;10.45;100.00;101155.09;5013117;28;20695;-71
2024/03/13 09:13:17;;;;;;;27.40;16.43;;;;;;;10.50;100.00;101158.34;5024184;28;20214;-71
2024/03/13 09:15:45;;;;;;;27.67;17.23;;;;;;;10.56;100.00;101159.72;5011044;28;20222;-71
2024/03/13 09:18:11;;;;;;;31.40;18.73;;;;;;;10.63;100.00;101162.69;5010109;28;20824;-71
2024/03/13 09:20:38;;;;;;;30.63;17.90;;;;;;;10.71;100.00;101158.50;5014194;28;20749;-71
2024/03/13 09:23:05;;;;;;;28.73;17.87;;;;;;;10.82;100.00;101167.66;5011393;28;20211;-71
2024/03/13 09:25:31;;;;;;;28.60;16.77;;;;;;;10.92;100.00;101164.69;5022993;28;20268;-71
2024/03/13 09:28:01;;;;;;;28.40;18.50;;;;;;;11.04;100.00;101170.13;5010517;28;20250;-71
2024/03/13 09:30:28;;;;;;;27.63;16.47;;;;;;;11.16;100.00;101163.09;5009089;28;20203;-71
2024/03/13 09:32:59;;;;;;;28.83;17.10;;;;;;;11.31;100.00;101162.59;5010214;28;20211;-71
2024/03/13 09:35:25;;;;;;;24.50;16.00;;;;;;;11.41;100.00;101159.59;5011038;28;20226;-71
2024/03/13 09:37:52;;;;;;;25.33;15.37;;;;;;;11.53;100.00;101154.41;5011548;28;20213;-71
2024/03/13 09:40:19;;;;;;;24.57;14.87;;;;;;;11.66;100.00;101160.63;5009321;28;20227;-71
2024/03/13 09:42:46;;;;;;;25.87;15.83;;;;;;;11.79;100.00;101162.25;5011122;28;20299;-71
2024/03/13 09:45:13;;;;;;;25.10;14.50;;;;;;;11.91;100.00;101159.72;5007599;28;20219;-71
2024/03/13 09:47:39;;;;;;;26.23;16.37;;;;;;;12.06;100.00;101167.88;5011268;28;20249;-71
2024/03/13 09:50:06;;;;;;;25.60;16.53;;;;;;;12.18;100.00;101165.34;5015882;28;20214;-71
2024/03/13 09:52:33;;;;;;;24.73;16.47;;;;;;;12.30;100.00;101170.69;5011716;28;20736;-71
2024/03/13 09:55:00;;;;;;;23.37;15.87;;;;;;;12.42;100.00;101170.00;5009668;28;20278;-71
2024/03/13 09:57:26;;;;;;;24.03;15.43;;;;;;;12.52;100.00;101161.66;5011553;28;20200;-71
2024/03/13 09:59:56;;;;;;;23.70;14.83;;;;;;;12.61;100.00;101162.34;5009491;28;20208;-71
2024/03/13 10:02:22;;;;;;;24.30;15.10;;;;;;;12.72;100.00;101155.56;5026666;28;20816;-71
2024/03/13 10:04:49;;;;;;;23.37;14.53;;;;;;;12.84;100.00;101161.69;5005523;28;20746;-71
2024/03/13 10:07:17;;;;;;;20.03;13.87;;;;;;;13.01;100.00;101153.63;5029202;28;20206;-71
2024/03/13 10:09:44;;;;;;;20.67;13.50;;;;;;;13.18;100.00;101156.06;5013638;28;20206;-71
2024/03/13 10:12:11;;;;;;;22.17;13.50;;;;;;;13.36;100.00;101152.13;5012171;28;20299;-71
2024/03/13 10:14:37;;;;;;;18.23;12.43;;;;;;;13.52;100.00;101161.00;5010512;28;20223;-71
2024/03/13 10:17:04;;;;;;;17.00;11.57;;;;;;;13.66;100.00;101158.78;5015016;28;20196;-71
2024/03/13 10:19:31;;;;;;;18.33;11.93;;;;;;;13.78;100.00;101158.03;5006059;28;20217;-71
2024/03/13 10:21:57;;;;;;;18.37;11.00;;;;;;;13.87;96.53;101150.72;5000310;28;20206;-71
2024/03/13 10:24:24;;;;;;;19.10;11.37;;;;;;;13.97;98.61;101151.03;5045947;28;20215;-71
2024/03/13 10:26:51;;;;;;;23.03;14.47;;;;;;;14.06;95.98;101146.38;5011927;28;20656;-71
2024/03/13 10:29:18;;;;;;;24.27;15.23;;;;;;;14.12;90.75;101145.03;5004675;28;20204;-71
2024/03/13 10:31:45;;;;;;;22.20;14.67;;;;;;;14.22;100.00;101147.25;5011249;28;20609;-71
2024/03/13 10:34:11;;;;;;;21.37;13.73;;;;;;;14.31;97.69;101136.50;5028618;28;20228;-71
2024/03/13 10:36:38;;;;;;;21.27;14.13;;;;;;;14.45;92.44;101128.94;5018616;28;20205;-71
2024/03/13 10:39:08;;;;;;;22.57;14.17;;;;;;;14.55;91.67;101133.78;5015018;28;20549;-71
2024/03/13 10:41:34;;;;;;;19.97;12.90;;;;;;;14.64;87.57;101129.84;5028499;28;20199;-71
2024/03/13 10:44:03;;;;;;;20.77;13.43;;;;;;;14.74;88.02;101113.41;5009956;28;20228;-71
2024/03/13 10:46:30;;;;;;;20.10;13.53;;;;;;;14.76;84.28;101119.16;5019032;28;20255;-71
2024/03/13 10:48:57;;;;;;;19.90;13.37;;;;;;;14.80;87.12;101119.28;5011994;28;20222;-71
2024/03/13 10:51:23;;;;;;;15.17;9.50;;;;;;;14.74;80.81;101120.63;5010356;28;20698;-71
2024/03/13 10:53:50;;;;;;;14.83;9.30;;;;;;;14.73;77.39;101117.19;5010450;28;20204;-71
2024/03/13 10:56:17;;;;;;;18.50;11.27;;;;;;;14.72;77.65;101115.66;5012232;28;20200;-71
2024/03/13 10:58:46;;;;;;;20.20;12.53;;;;;;;14.62;74.85;101118.00;5011216;28;20232;-71
2024/03/13 11:01:15;;;;;;;20.13;13.03;;;;;;;14.59;74.75;101108.84;5010333;28;20195;-71
2024/03/13 11:03:41;;;;;;;20.23;13.23;;;;;;;14.57;80.02;101100.44;5007505;28;20629;-71
2024/03/13 11:06:09;;;;;;;21.60;12.80;;;;;;;14.51;80.40;101108.97;5012638;28;20204;-71
2024/03/13 11:08:35;;;;;;;18.43;11.73;;;;;;;14.45;74.65;101095.19;5012926;28;20273;-71
2024/03/13 11:11:02;;;;;;;17.30;11.70;;;;;;;14.42;76.31;101098.50;5013408;28;20727;-71
2024/03/13 11:13:28;;;;;;;17.07;10.87;;;;;;;14.31;73.91;101096.66;5012036;28;20250;-71
2024/03/13 11:15:55;;;;;;;16.33;11.30;;;;;;;14.22;73.49;101096.78;4999642;28;20219;-71
2024/03/13 11:18:22;;;;;;;16.50;10.77;;;;;;;14.20;77.69;101091.06;5011461;28;20279;-71
2024/03/13 11:20:50;;;;;;;16.43;10.60;;;;;;;14.12;74.47;101101.78;5010139;28;20208;-71
2024/03/13 11:23:19;;;;;;;17.37;9.93;;;;;;;13.99;73.89;101101.03;5008121;28;20203;-71
2024/03/13 11:25:47;;;;;;;15.20;10.37;;;;;;;13.90;75.06;101094.28;5012315;28;20307;-71
2024/03/13 11:28:14;;;;;;;15.47;10.97;;;;;;;13.85;85.26;101097.16;5010883;28;20739;-71